sensor_id;sensor_type;location;lat;lon;timestamp;P1;durP1;ratioP1;P2;durP2;ratioP2
6280;SDS011;3173;48.204;11.612;2023-11-18T00:01:33;5.60;;;5.00;;
6280;SDS011;3173;48.204;11.612;2023-11-18T00:04:00;8.23;;;5.90;;
6280;SDS011;3173;48.204;11.612;2023-11-18T00:06:26;7.33;;;4.67;;
6280;SDS011;3173;48.204;11.612;2023-11-18T00:08:53;7.60;;;4.87;;
6280;SDS011;3173;48.204;11.612;2023-11-18T00:11:19;7.60;;;5.20;;
6280;SDS011;3173;48.204;11.612;2023-11-18T00:13:45;8.10;;;5.60;;
6280;SDS011;3173;48.204;11.612;2023-11-18T00:16:11;9.17;;;5.60;;
6280;SDS011;3173;48.204;11.612;2023-11-18T00:18:40;7.40;;;5.57;;
6280;SDS011;3173;48.204;11.612;2023-11-18T00:21:07;8.40;;;5.03;;
6280;SDS011;3173;48.204;11.612;2023-11-18T00:23:33;5.97;;;4.47;;
6280;SDS011;3173;48.204;11.612;2023-11-18T00:25:59;6.60;;;4.67;;
6280;SDS011;3173;48.204;11.612;2023-11-18T00:28:25;7.37;;;5.30;;
6280;SDS011;3173;48.204;11.612;2023-11-18T00:30:52;7.07;;;5.53;;
6280;SDS011;3173;48.204;11.612;2023-11-18T00:33:18;7.33;;;5.40;;
6280;SDS011;3173;48.204;11.612;2023-11-18T00:35:44;8.77;;;5.80;;
6280;SDS011;3173;48.204;11.612;2023-11-18T00:38:11;8.80;;;6.00;;
6280;SDS011;3173;48.204;11.612;2023-11-18T00:40:37;7.40;;;5.03;;
6280;SDS011;3173;48.204;11.612;2023-11-18T00:43:03;7.97;;;6.13;;
6280;SDS011;3173;48.204;11.612;2023-11-18T00:45:29;10.13;;;6.10;;
6280;SDS011;3173;48.204;11.612;2023-11-18T00:47:56;8.40;;;6.13;;
6280;SDS011;3173;48.204;11.612;2023-11-18T00:50:22;5.87;;;4.80;;
6280;SDS011;3173;48.204;11.612;2023-11-18T00:52:48;8.03;;;5.80;;
6280;SDS011;3173;48.204;11.612;2023-11-18T00:55:15;7.63;;;5.60;;
6280;SDS011;3173;48.204;11.612;2023-11-18T00:57:43;7.47;;;5.47;;
6280;SDS011;3173;48.204;11.612;2023-11-18T01:00:13;6.87;;;5.57;;
6280;SDS011;3173;48.204;11.612;2023-11-18T01:02:41;6.00;;;5.13;;
6280;SDS011;3173;48.204;11.612;2023-11-18T01:05:08;7.20;;;5.00;;
6280;SDS011;3173;48.204;11.612;2023-11-18T01:07:36;6.77;;;4.10;;
6280;SDS011;3173;48.204;11.612;2023-11-18T01:10:02;5.37;;;3.80;;
6280;SDS011;3173;48.204;11.612;2023-11-18T01:12:28;6.80;;;3.60;;
6280;SDS011;3173;48.204;11.612;2023-11-18T01:14:55;5.13;;;4.33;;
6280;SDS011;3173;48.204;11.612;2023-11-18T01:17:21;4.97;;;3.70;;
6280;SDS011;3173;48.204;11.612;2023-11-18T01:19:47;4.43;;;3.63;;
6280;SDS011;3173;48.204;11.612;2023-11-18T01:22:13;4.77;;;3.70;;
6280;SDS011;3173;48.204;11.612;2023-11-18T01:24:39;6.40;;;3.40;;
6280;SDS011;3173;48.204;11.612;2023-11-18T01:27:06;3.53;;;3.07;;
6280;SDS011;3173;48.204;11.612;2023-11-18T01:29:35;4.13;;;3.50;;
6280;SDS011;3173;48.204;11.612;2023-11-18T01:32:01;5.17;;;3.40;;
6280;SDS011;3173;48.204;11.612;2023-11-18T01:34:34;5.10;;;3.60;;
6280;SDS011;3173;48.204;11.612;2023-11-18T01:37:00;3.53;;;3.20;;
6280;SDS011;3173;48.204;11.612;2023-11-18T01:39:26;3.67;;;3.07;;
6280;SDS011;3173;48.204;11.612;2023-11-18T01:41:52;3.73;;;2.90;;
6280;SDS011;3173;48.204;11.612;2023-11-18T01:44:18;3.87;;;2.97;;
6280;SDS011;3173;48.204;11.612;2023-11-18T01:46:45;2.90;;;2.60;;
6280;SDS011;3173;48.204;11.612;2023-11-18T01:49:11;6.87;;;3.50;;
6280;SDS011;3173;48.204;11.612;2023-11-18T01:51:40;3.27;;;2.97;;
6280;SDS011;3173;48.204;11.612;2023-11-18T01:54:06;3.43;;;2.73;;
6280;SDS011;3173;48.204;11.612;2023-11-18T01:56:33;4.37;;;3.03;;
6280;SDS011;3173;48.204;11.612;2023-11-18T01:58:59;3.03;;;2.63;;
6280;SDS011;3173;48.204;11.612;2023-11-18T02:01:29;3.70;;;2.30;;
6280;SDS011;3173;48.204;11.612;2023-11-18T02:03:55;4.20;;;2.90;;
6280;SDS011;3173;48.204;11.612;2023-11-18T02:06:21;4.53;;;2.90;;
6280;SDS011;3173;48.204;11.612;2023-11-18T02:08:48;6.10;;;2.50;;
6280;SDS011;3173;48.204;11.612;2023-11-18T02:11:17;4.43;;;2.90;;
6280;SDS011;3173;48.204;11.612;2023-11-18T02:13:44;2.83;;;2.37;;
6280;SDS011;3173;48.204;11.612;2023-11-18T02:16:11;3.73;;;3.30;;
6280;SDS011;3173;48.204;11.612;2023-11-18T02:18:38;3.03;;;2.40;;
6280;SDS011;3173;48.204;11.612;2023-11-18T02:21:08;4.20;;;3.20;;
6280;SDS011;3173;48.204;11.612;2023-11-18T02:23:36;3.00;;;2.60;;
6280;SDS011;3173;48.204;11.612;2023-11-18T02:26:02;3.80;;;2.77;;
6280;SDS011;3173;48.204;11.612;2023-11-18T02:28:28;3.20;;;2.90;;
6280;SDS011;3173;48.204;11.612;2023-11-18T02:30:56;3.03;;;2.73;;
6280;SDS011;3173;48.204;11.612;2023-11-18T02:36:01;4.00;;;2.83;;
6280;SDS011;3173;48.204;11.612;2023-11-18T02:38:31;3.80;;;2.97;;
6280;SDS011;3173;48.204;11.612;2023-11-18T02:40:58;3.70;;;3.30;;
6280;SDS011;3173;48.204;11.612;2023-11-18T02:43:29;3.77;;;3.10;;
6280;SDS011;3173;48.204;11.612;2023-11-18T02:45:56;3.87;;;2.77;;
6280;SDS011;3173;48.204;11.612;2023-11-18T02:48:23;5.13;;;3.30;;
6280;SDS011;3173;48.204;11.612;2023-11-18T02:50:49;3.83;;;2.93;;
6280;SDS011;3173;48.204;11.612;2023-11-18T02:53:15;3.17;;;2.73;;
6280;SDS011;3173;48.204;11.612;2023-11-18T02:55:41;4.67;;;3.37;;
6280;SDS011;3173;48.204;11.612;2023-11-18T02:58:07;3.80;;;3.17;;
6280;SDS011;3173;48.204;11.612;2023-11-18T03:00:34;5.30;;;2.97;;
6280;SDS011;3173;48.204;11.612;2023-11-18T03:03:00;4.07;;;2.93;;
6280;SDS011;3173;48.204;11.612;2023-11-18T03:05:28;3.43;;;2.73;;
6280;SDS011;3173;48.204;11.612;2023-11-18T03:07:55;4.60;;;3.20;;
6280;SDS011;3173;48.204;11.612;2023-11-18T03:10:23;6.23;;;3.40;;
6280;SDS011;3173;48.204;11.612;2023-11-18T03:12:50;3.27;;;2.90;;
6280;SDS011;3173;48.204;11.612;2023-11-18T03:15:17;4.40;;;3.30;;
6280;SDS011;3173;48.204;11.612;2023-11-18T03:17:44;4.17;;;3.40;;
6280;SDS011;3173;48.204;11.612;2023-11-18T03:20:11;3.50;;;3.07;;
6280;SDS011;3173;48.204;11.612;2023-11-18T03:22:40;5.40;;;3.20;;
6280;SDS011;3173;48.204;11.612;2023-11-18T03:25:08;4.20;;;3.10;;
6280;SDS011;3173;48.204;11.612;2023-11-18T03:27:35;3.70;;;3.10;;
6280;SDS011;3173;48.204;11.612;2023-11-18T03:30:01;3.93;;;2.87;;
6280;SDS011;3173;48.204;11.612;2023-11-18T03:32:28;3.50;;;2.93;;
6280;SDS011;3173;48.204;11.612;2023-11-18T03:34:54;3.00;;;2.37;;
6280;SDS011;3173;48.204;11.612;2023-11-18T03:37:20;3.03;;;2.73;;
6280;SDS011;3173;48.204;11.612;2023-11-18T03:39:48;3.77;;;2.70;;
6280;SDS011;3173;48.204;11.612;2023-11-18T03:42:14;4.00;;;3.30;;
6280;SDS011;3173;48.204;11.612;2023-11-18T03:44:40;3.87;;;2.97;;
6280;SDS011;3173;48.204;11.612;2023-11-18T03:47:06;3.43;;;2.80;;
6280;SDS011;3173;48.204;11.612;2023-11-18T03:49:33;3.27;;;2.60;;
6280;SDS011;3173;48.204;11.612;2023-11-18T03:51:59;3.20;;;2.83;;
6280;SDS011;3173;48.204;11.612;2023-11-18T03:54:25;4.10;;;3.03;;
6280;SDS011;3173;48.204;11.612;2023-11-18T03:56:52;3.90;;;2.93;;
6280;SDS011;3173;48.204;11.612;2023-11-18T03:59:18;4.30;;;2.40;;
6280;SDS011;3173;48.204;11.612;2023-11-18T04:01:44;5.17;;;3.37;;
6280;SDS011;3173;48.204;11.612;2023-11-18T04:04:10;4.80;;;3.97;;
6280;SDS011;3173;48.204;11.612;2023-11-18T04:06:36;3.90;;;3.20;;
6280;SDS011;3173;48.204;11.612;2023-11-18T04:09:03;4.23;;;3.00;;
6280;SDS011;3173;48.204;11.612;2023-11-18T04:11:31;3.63;;;3.30;;
6280;SDS011;3173;48.204;11.612;2023-11-18T04:13:57;5.60;;;3.50;;
6280;SDS011;3173;48.204;11.612;2023-11-18T04:16:23;3.60;;;3.00;;
6280;SDS011;3173;48.204;11.612;2023-11-18T04:18:49;3.47;;;3.03;;
6280;SDS011;3173;48.204;11.612;2023-11-18T04:21:15;3.50;;;2.83;;
6280;SDS011;3173;48.204;11.612;2023-11-18T04:23:42;4.20;;;3.40;;
6280;SDS011;3173;48.204;11.612;2023-11-18T04:26:12;5.20;;;4.17;;
6280;SDS011;3173;48.204;11.612;2023-11-18T04:28:38;5.17;;;3.90;;
6280;SDS011;3173;48.204;11.612;2023-11-18T04:31:04;5.50;;;3.63;;
6280;SDS011;3173;48.204;11.612;2023-11-18T04:33:31;5.80;;;4.17;;
6280;SDS011;3173;48.204;11.612;2023-11-18T04:35:58;6.43;;;4.53;;
6280;SDS011;3173;48.204;11.612;2023-11-18T04:38:25;5.23;;;3.97;;
6280;SDS011;3173;48.204;11.612;2023-11-18T04:40:51;5.00;;;3.87;;
6280;SDS011;3173;48.204;11.612;2023-11-18T04:43:19;5.17;;;3.90;;
6280;SDS011;3173;48.204;11.612;2023-11-18T04:45:45;5.40;;;4.47;;
6280;SDS011;3173;48.204;11.612;2023-11-18T04:48:11;5.30;;;4.10;;
6280;SDS011;3173;48.204;11.612;2023-11-18T04:50:41;5.30;;;3.83;;
6280;SDS011;3173;48.204;11.612;2023-11-18T04:53:08;5.90;;;4.10;;
6280;SDS011;3173;48.204;11.612;2023-11-18T04:55:36;4.03;;;3.60;;
6280;SDS011;3173;48.204;11.612;2023-11-18T04:58:02;5.60;;;4.40;;
6280;SDS011;3173;48.204;11.612;2023-11-18T05:00:31;4.40;;;3.60;;
6280;SDS011;3173;48.204;11.612;2023-11-18T05:02:57;4.50;;;4.10;;
6280;SDS011;3173;48.204;11.612;2023-11-18T05:05:23;9.47;;;6.03;;
6280;SDS011;3173;48.204;11.612;2023-11-18T05:07:50;5.53;;;3.73;;
6280;SDS011;3173;48.204;11.612;2023-11-18T05:10:16;5.17;;;3.80;;
6280;SDS011;3173;48.204;11.612;2023-11-18T05:12:43;4.80;;;4.07;;
6280;SDS011;3173;48.204;11.612;2023-11-18T05:15:10;6.03;;;4.80;;
6280;SDS011;3173;48.204;11.612;2023-11-18T05:17:37;7.13;;;4.50;;
6280;SDS011;3173;48.204;11.612;2023-11-18T05:20:04;5.17;;;3.97;;
6280;SDS011;3173;48.204;11.612;2023-11-18T05:22:33;5.20;;;4.07;;
6280;SDS011;3173;48.204;11.612;2023-11-18T05:24:59;3.87;;;3.40;;
6280;SDS011;3173;48.204;11.612;2023-11-18T05:27:25;5.23;;;3.93;;
6280;SDS011;3173;48.204;11.612;2023-11-18T05:29:52;7.27;;;4.23;;
6280;SDS011;3173;48.204;11.612;2023-11-18T05:32:24;4.30;;;3.57;;
6280;SDS011;3173;48.204;11.612;2023-11-18T05:34:52;5.87;;;4.30;;
6280;SDS011;3173;48.204;11.612;2023-11-18T05:37:20;5.03;;;4.23;;
6280;SDS011;3173;48.204;11.612;2023-11-18T05:39:46;4.97;;;3.57;;
6280;SDS011;3173;48.204;11.612;2023-11-18T05:42:14;7.90;;;5.00;;
6280;SDS011;3173;48.204;11.612;2023-11-18T05:44:40;4.53;;;4.00;;
6280;SDS011;3173;48.204;11.612;2023-11-18T05:47:08;5.40;;;4.20;;
6280;SDS011;3173;48.204;11.612;2023-11-18T05:49:37;6.67;;;4.50;;
6280;SDS011;3173;48.204;11.612;2023-11-18T05:52:03;4.00;;;3.60;;
6280;SDS011;3173;48.204;11.612;2023-11-18T05:54:30;5.50;;;4.47;;
6280;SDS011;3173;48.204;11.612;2023-11-18T05:56:56;6.65;;;5.10;;
6280;SDS011;3173;48.204;11.612;2023-11-18T05:59:24;7.90;;;5.13;;
6280;SDS011;3173;48.204;11.612;2023-11-18T06:01:52;5.30;;;4.33;;
6280;SDS011;3173;48.204;11.612;2023-11-18T06:04:18;6.70;;;4.10;;
6280;SDS011;3173;48.204;11.612;2023-11-18T06:06:44;6.23;;;4.13;;
6280;SDS011;3173;48.204;11.612;2023-11-18T06:09:12;6.10;;;4.60;;
6280;SDS011;3173;48.204;11.612;2023-11-18T06:11:46;5.30;;;4.10;;
6280;SDS011;3173;48.204;11.612;2023-11-18T06:14:12;5.83;;;4.40;;
6280;SDS011;3173;48.204;11.612;2023-11-18T06:16:38;6.43;;;4.63;;
6280;SDS011;3173;48.204;11.612;2023-11-18T06:19:07;7.10;;;4.90;;
6280;SDS011;3173;48.204;11.612;2023-11-18T06:21:35;6.27;;;4.37;;
6280;SDS011;3173;48.204;11.612;2023-11-18T06:24:01;7.83;;;5.20;;
6280;SDS011;3173;48.204;11.612;2023-11-18T06:26:31;5.30;;;4.13;;
6280;SDS011;3173;48.204;11.612;2023-11-18T06:29:01;5.70;;;4.10;;
6280;SDS011;3173;48.204;11.612;2023-11-18T06:31:27;5.43;;;4.20;;
6280;SDS011;3173;48.204;11.612;2023-11-18T06:33:54;5.10;;;4.33;;
6280;SDS011;3173;48.204;11.612;2023-11-18T06:36:21;7.53;;;4.30;;
6280;SDS011;3173;48.204;11.612;2023-11-18T06:38:48;9.90;;;5.33;;
6280;SDS011;3173;48.204;11.612;2023-11-18T06:41:18;6.70;;;5.00;;
6280;SDS011;3173;48.204;11.612;2023-11-18T06:43:44;6.57;;;5.27;;
6280;SDS011;3173;48.204;11.612;2023-11-18T06:46:38;7.10;;;5.03;;
6280;SDS011;3173;48.204;11.612;2023-11-18T06:49:05;5.87;;;4.50;;
6280;SDS011;3173;48.204;11.612;2023-11-18T06:51:36;7.37;;;4.80;;
6280;SDS011;3173;48.204;11.612;2023-11-18T06:54:03;6.73;;;4.67;;
6280;SDS011;3173;48.204;11.612;2023-11-18T06:56:34;7.00;;;4.77;;
6280;SDS011;3173;48.204;11.612;2023-11-18T06:59:02;8.00;;;4.77;;
6280;SDS011;3173;48.204;11.612;2023-11-18T07:01:29;6.13;;;4.50;;
6280;SDS011;3173;48.204;11.612;2023-11-18T07:03:56;6.20;;;4.47;;
6280;SDS011;3173;48.204;11.612;2023-11-18T07:06:22;7.00;;;4.97;;
6280;SDS011;3173;48.204;11.612;2023-11-18T07:08:49;6.50;;;4.20;;
6280;SDS011;3173;48.204;11.612;2023-11-18T07:11:15;9.00;;;4.30;;
6280;SDS011;3173;48.204;11.612;2023-11-18T07:13:42;6.87;;;4.60;;
6280;SDS011;3173;48.204;11.612;2023-11-18T07:16:08;5.80;;;4.30;;
6280;SDS011;3173;48.204;11.612;2023-11-18T07:18:34;5.37;;;4.03;;
6280;SDS011;3173;48.204;11.612;2023-11-18T07:21:02;7.23;;;4.90;;
6280;SDS011;3173;48.204;11.612;2023-11-18T07:23:29;7.00;;;4.87;;
6280;SDS011;3173;48.204;11.612;2023-11-18T07:25:56;7.30;;;4.77;;
6280;SDS011;3173;48.204;11.612;2023-11-18T07:28:23;13.50;;;4.80;;
6280;SDS011;3173;48.204;11.612;2023-11-18T07:30:49;7.20;;;4.40;;
6280;SDS011;3173;48.204;11.612;2023-11-18T07:33:16;12.10;;;5.13;;
6280;SDS011;3173;48.204;11.612;2023-11-18T07:35:44;6.73;;;4.43;;
6280;SDS011;3173;48.204;11.612;2023-11-18T07:38:11;7.63;;;4.23;;
6280;SDS011;3173;48.204;11.612;2023-11-18T07:40:38;8.60;;;5.10;;
6280;SDS011;3173;48.204;11.612;2023-11-18T07:43:19;5.90;;;4.27;;
6280;SDS011;3173;48.204;11.612;2023-11-18T07:45:46;12.70;;;4.17;;
6280;SDS011;3173;48.204;11.612;2023-11-18T07:48:17;7.40;;;4.97;;
6280;SDS011;3173;48.204;11.612;2023-11-18T07:50:43;6.00;;;4.57;;
6280;SDS011;3173;48.204;11.612;2023-11-18T07:53:10;6.90;;;4.77;;
6280;SDS011;3173;48.204;11.612;2023-11-18T07:55:36;6.83;;;4.43;;
6280;SDS011;3173;48.204;11.612;2023-11-18T07:58:05;6.13;;;4.03;;
6280;SDS011;3173;48.204;11.612;2023-11-18T08:00:38;6.33;;;4.10;;
6280;SDS011;3173;48.204;11.612;2023-11-18T08:03:07;5.60;;;4.20;;
6280;SDS011;3173;48.204;11.612;2023-11-18T08:05:40;5.30;;;3.83;;
6280;SDS011;3173;48.204;11.612;2023-11-18T08:08:08;6.03;;;4.10;;
6280;SDS011;3173;48.204;11.612;2023-11-18T08:10:35;5.40;;;4.40;;
6280;SDS011;3173;48.204;11.612;2023-11-18T08:13:06;8.00;;;4.00;;
6280;SDS011;3173;48.204;11.612;2023-11-18T08:15:38;5.00;;;3.70;;
6280;SDS011;3173;48.204;11.612;2023-11-18T08:18:10;4.97;;;3.90;;
6280;SDS011;3173;48.204;11.612;2023-11-18T08:20:36;6.03;;;3.73;;
6280;SDS011;3173;48.204;11.612;2023-11-18T08:23:03;5.60;;;3.87;;
6280;SDS011;3173;48.204;11.612;2023-11-18T08:25:32;5.67;;;3.70;;
6280;SDS011;3173;48.204;11.612;2023-11-18T08:28:01;4.50;;;3.60;;
6280;SDS011;3173;48.204;11.612;2023-11-18T08:30:28;5.93;;;3.53;;
6280;SDS011;3173;48.204;11.612;2023-11-18T08:32:55;6.57;;;4.20;;
6280;SDS011;3173;48.204;11.612;2023-11-18T08:35:23;6.03;;;3.90;;
6280;SDS011;3173;48.204;11.612;2023-11-18T08:37:49;5.73;;;3.73;;
6280;SDS011;3173;48.204;11.612;2023-11-18T08:40:16;11.60;;;4.20;;
6280;SDS011;3173;48.204;11.612;2023-11-18T08:42:51;5.70;;;3.60;;
6280;SDS011;3173;48.204;11.612;2023-11-18T08:45:19;4.83;;;3.43;;
6280;SDS011;3173;48.204;11.612;2023-11-18T08:47:53;4.33;;;3.20;;
6280;SDS011;3173;48.204;11.612;2023-11-18T08:50:20;4.97;;;3.27;;
6280;SDS011;3173;48.204;11.612;2023-11-18T08:52:49;3.60;;;2.90;;
6280;SDS011;3173;48.204;11.612;2023-11-18T08:55:18;3.33;;;2.90;;
6280;SDS011;3173;48.204;11.612;2023-11-18T08:58:03;4.30;;;3.43;;
6280;SDS011;3173;48.204;11.612;2023-11-18T09:00:41;3.80;;;3.13;;
6280;SDS011;3173;48.204;11.612;2023-11-18T09:03:10;3.70;;;2.93;;
6280;SDS011;3173;48.204;11.612;2023-11-18T09:05:45;5.43;;;3.03;;
6280;SDS011;3173;48.204;11.612;2023-11-18T09:08:22;3.07;;;2.50;;
6280;SDS011;3173;48.204;11.612;2023-11-18T09:10:49;4.73;;;2.90;;
6280;SDS011;3173;48.204;11.612;2023-11-18T09:13:19;6.50;;;2.77;;
6280;SDS011;3173;48.204;11.612;2023-11-18T09:15:45;3.50;;;2.80;;
6280;SDS011;3173;48.204;11.612;2023-11-18T09:18:12;3.40;;;2.80;;
6280;SDS011;3173;48.204;11.612;2023-11-18T09:20:38;3.30;;;2.73;;
6280;SDS011;3173;48.204;11.612;2023-11-18T09:23:05;4.50;;;3.20;;
6280;SDS011;3173;48.204;11.612;2023-11-18T09:25:32;5.33;;;3.80;;
6280;SDS011;3173;48.204;11.612;2023-11-18T09:27:58;4.00;;;2.77;;
6280;SDS011;3173;48.204;11.612;2023-11-18T09:30:25;3.70;;;2.40;;
6280;SDS011;3173;48.204;11.612;2023-11-18T09:32:51;3.90;;;2.67;;
6280;SDS011;3173;48.204;11.612;2023-11-18T09:35:19;4.03;;;2.97;;
6280;SDS011;3173;48.204;11.612;2023-11-18T09:37:45;7.27;;;2.90;;
6280;SDS011;3173;48.204;11.612;2023-11-18T09:40:15;3.97;;;2.90;;
6280;SDS011;3173;48.204;11.612;2023-11-18T09:42:43;3.30;;;2.90;;
6280;SDS011;3173;48.204;11.612;2023-11-18T09:45:09;3.50;;;2.70;;
6280;SDS011;3173;48.204;11.612;2023-11-18T09:47:45;3.50;;;2.47;;
6280;SDS011;3173;48.204;11.612;2023-11-18T09:50:13;3.73;;;2.80;;
6280;SDS011;3173;48.204;11.612;2023-11-18T09:52:49;5.97;;;2.93;;
6280;SDS011;3173;48.204;11.612;2023-11-18T09:55:29;4.10;;;2.80;;
6280;SDS011;3173;48.204;11.612;2023-11-18T09:58:04;3.23;;;2.30;;
6280;SDS011;3173;48.204;11.612;2023-11-18T10:00:38;4.27;;;2.90;;
6280;SDS011;3173;48.204;11.612;2023-11-18T10:03:07;2.97;;;2.27;;
6280;SDS011;3173;48.204;11.612;2023-11-18T10:05:35;5.60;;;2.63;;
6280;SDS011;3173;48.204;11.612;2023-11-18T10:08:04;3.00;;;2.10;;
6280;SDS011;3173;48.204;11.612;2023-11-18T10:10:31;2.57;;;1.83;;
6280;SDS011;3173;48.204;11.612;2023-11-18T10:13:10;2.40;;;2.00;;
6280;SDS011;3173;48.204;11.612;2023-11-18T10:15:49;3.67;;;2.13;;
6280;SDS011;3173;48.204;11.612;2023-11-18T10:18:19;2.53;;;1.80;;
6280;SDS011;3173;48.204;11.612;2023-11-18T10:20:50;4.60;;;1.90;;
6280;SDS011;3173;48.204;11.612;2023-11-18T10:23:20;2.73;;;2.00;;
6280;SDS011;3173;48.204;11.612;2023-11-18T10:28:29;2.60;;;2.00;;
6280;SDS011;3173;48.204;11.612;2023-11-18T10:30:58;2.10;;;1.30;;
6280;SDS011;3173;48.204;11.612;2023-11-18T10:33:28;1.90;;;1.27;;
6280;SDS011;3173;48.204;11.612;2023-11-18T10:35:55;2.60;;;1.33;;
6280;SDS011;3173;48.204;11.612;2023-11-18T10:38:22;4.13;;;1.30;;
6280;SDS011;3173;48.204;11.612;2023-11-18T10:40:55;1.50;;;1.10;;
6280;SDS011;3173;48.204;11.612;2023-11-18T10:43:21;3.40;;;1.40;;
6280;SDS011;3173;48.204;11.612;2023-11-18T10:46:09;2.20;;;0.90;;
6280;SDS011;3173;48.204;11.612;2023-11-18T10:48:49;2.07;;;1.00;;
6280;SDS011;3173;48.204;11.612;2023-11-18T10:51:19;3.20;;;1.50;;
6280;SDS011;3173;48.204;11.612;2023-11-18T10:53:49;2.20;;;1.13;;
6280;SDS011;3173;48.204;11.612;2023-11-18T10:56:19;1.80;;;1.30;;
6280;SDS011;3173;48.204;11.612;2023-11-18T10:58:49;4.03;;;1.20;;
6280;SDS011;3173;48.204;11.612;2023-11-18T11:01:26;1.80;;;1.10;;
6280;SDS011;3173;48.204;11.612;2023-11-18T11:03:53;2.17;;;1.20;;
6280;SDS011;3173;48.204;11.612;2023-11-18T11:06:27;2.07;;;1.20;;
6280;SDS011;3173;48.204;11.612;2023-11-18T11:08:56;2.63;;;1.20;;
6280;SDS011;3173;48.204;11.612;2023-11-18T11:11:26;3.17;;;1.20;;
6280;SDS011;3173;48.204;11.612;2023-11-18T11:13:58;1.77;;;1.10;;
6280;SDS011;3173;48.204;11.612;2023-11-18T11:16:33;3.90;;;1.73;;
6280;SDS011;3173;48.204;11.612;2023-11-18T11:19:04;2.10;;;1.47;;
6280;SDS011;3173;48.204;11.612;2023-11-18T11:21:43;4.13;;;1.50;;
6280;SDS011;3173;48.204;11.612;2023-11-18T11:24:26;3.00;;;1.80;;
6280;SDS011;3173;48.204;11.612;2023-11-18T11:29:40;3.60;;;1.83;;
6280;SDS011;3173;48.204;11.612;2023-11-18T11:34:37;3.00;;;1.40;;
6280;SDS011;3173;48.204;11.612;2023-11-18T11:37:07;2.60;;;1.73;;
6280;SDS011;3173;48.204;11.612;2023-11-18T11:39:36;3.80;;;1.70;;
6280;SDS011;3173;48.204;11.612;2023-11-18T11:42:03;12.23;;;3.13;;
6280;SDS011;3173;48.204;11.612;2023-11-18T11:44:34;4.20;;;2.03;;
6280;SDS011;3173;48.204;11.612;2023-11-18T11:47:07;3.60;;;1.10;;
6280;SDS011;3173;48.204;11.612;2023-11-18T11:49:39;1.67;;;1.13;;
6280;SDS011;3173;48.204;11.612;2023-11-18T11:54:38;2.30;;;1.10;;
6280;SDS011;3173;48.204;11.612;2023-11-18T11:57:06;3.97;;;1.40;;
6280;SDS011;3173;48.204;11.612;2023-11-18T11:59:35;2.63;;;1.10;;
6280;SDS011;3173;48.204;11.612;2023-11-18T12:02:02;1.73;;;0.90;;
6280;SDS011;3173;48.204;11.612;2023-11-18T12:04:34;1.53;;;1.10;;
6280;SDS011;3173;48.204;11.612;2023-11-18T12:07:03;3.90;;;0.80;;
6280;SDS011;3173;48.204;11.612;2023-11-18T12:09:29;1.93;;;1.00;;
6280;SDS011;3173;48.204;11.612;2023-11-18T12:11:58;2.57;;;1.23;;
6280;SDS011;3173;48.204;11.612;2023-11-18T12:14:25;2.10;;;1.00;;
6280;SDS011;3173;48.204;11.612;2023-11-18T12:17:03;2.73;;;1.00;;
6280;SDS011;3173;48.204;11.612;2023-11-18T12:19:38;2.10;;;1.40;;
6280;SDS011;3173;48.204;11.612;2023-11-18T12:22:20;1.83;;;1.13;;
6280;SDS011;3173;48.204;11.612;2023-11-18T12:41:25;1.73;;;0.90;;
6280;SDS011;3173;48.204;11.612;2023-11-18T12:46:48;1.30;;;0.80;;
6280;SDS011;3173;48.204;11.612;2023-11-18T12:49:23;2.30;;;0.83;;
6280;SDS011;3173;48.204;11.612;2023-11-18T12:51:53;3.00;;;1.00;;
6280;SDS011;3173;48.204;11.612;2023-11-18T12:54:20;2.57;;;0.90;;
6280;SDS011;3173;48.204;11.612;2023-11-18T12:56:50;2.67;;;0.87;;
6280;SDS011;3173;48.204;11.612;2023-11-18T12:59:19;2.53;;;1.10;;
6280;SDS011;3173;48.204;11.612;2023-11-18T13:01:49;1.20;;;0.90;;
6280;SDS011;3173;48.204;11.612;2023-11-18T13:04:29;1.70;;;0.90;;
6280;SDS011;3173;48.204;11.612;2023-11-18T13:06:55;1.40;;;0.80;;
6280;SDS011;3173;48.204;11.612;2023-11-18T13:09:23;1.40;;;0.80;;
6280;SDS011;3173;48.204;11.612;2023-11-18T13:11:58;2.50;;;0.90;;
6280;SDS011;3173;48.204;11.612;2023-11-18T13:14:25;1.77;;;0.90;;
6280;SDS011;3173;48.204;11.612;2023-11-18T13:16:55;1.60;;;0.90;;
6280;SDS011;3173;48.204;11.612;2023-11-18T13:19:25;1.30;;;0.90;;
6280;SDS011;3173;48.204;11.612;2023-11-18T13:21:56;3.43;;;1.10;;
6280;SDS011;3173;48.204;11.612;2023-11-18T13:24:22;1.67;;;1.10;;
6280;SDS011;3173;48.204;11.612;2023-11-18T13:26:48;1.20;;;0.90;;
6280;SDS011;3173;48.204;11.612;2023-11-18T13:29:14;2.07;;;1.20;;
6280;SDS011;3173;48.204;11.612;2023-11-18T13:31:41;1.60;;;0.90;;
6280;SDS011;3173;48.204;11.612;2023-11-18T13:34:08;2.93;;;1.20;;
6280;SDS011;3173;48.204;11.612;2023-11-18T13:36:35;1.90;;;1.10;;
6280;SDS011;3173;48.204;11.612;2023-11-18T13:39:02;2.10;;;1.10;;
6280;SDS011;3173;48.204;11.612;2023-11-18T13:41:31;2.43;;;1.00;;
6280;SDS011;3173;48.204;11.612;2023-11-18T13:43:58;3.13;;;1.00;;
6280;SDS011;3173;48.204;11.612;2023-11-18T13:46:24;3.03;;;1.07;;
6280;SDS011;3173;48.204;11.612;2023-11-18T13:48:51;1.73;;;1.10;;
6280;SDS011;3173;48.204;11.612;2023-11-18T13:51:18;3.80;;;1.63;;
6280;SDS011;3173;48.204;11.612;2023-11-18T13:53:46;2.70;;;1.13;;
6280;SDS011;3173;48.204;11.612;2023-11-18T13:56:13;1.50;;;0.90;;
6280;SDS011;3173;48.204;11.612;2023-11-18T13:58:41;2.10;;;1.23;;
6280;SDS011;3173;48.204;11.612;2023-11-18T14:01:08;4.07;;;1.20;;
6280;SDS011;3173;48.204;11.612;2023-11-18T14:03:37;1.70;;;1.00;;
6280;SDS011;3173;48.204;11.612;2023-11-18T14:06:07;2.77;;;1.20;;
6280;SDS011;3173;48.204;11.612;2023-11-18T14:08:36;3.20;;;1.23;;
6280;SDS011;3173;48.204;11.612;2023-11-18T14:11:02;2.57;;;1.20;;
6280;SDS011;3173;48.204;11.612;2023-11-18T14:13:30;4.40;;;1.60;;
6280;SDS011;3173;48.204;11.612;2023-11-18T14:15:58;3.60;;;1.20;;
6280;SDS011;3173;48.204;11.612;2023-11-18T14:18:25;10.17;;;1.97;;
6280;SDS011;3173;48.204;11.612;2023-11-18T14:20:51;3.50;;;1.50;;
6280;SDS011;3173;48.204;11.612;2023-11-18T14:23:17;3.27;;;1.33;;
6280;SDS011;3173;48.204;11.612;2023-11-18T14:25:44;2.77;;;1.43;;
6280;SDS011;3173;48.204;11.612;2023-11-18T14:28:13;2.40;;;1.70;;
6280;SDS011;3173;48.204;11.612;2023-11-18T14:30:39;4.33;;;1.13;;
6280;SDS011;3173;48.204;11.612;2023-11-18T14:33:06;2.80;;;1.70;;
6280;SDS011;3173;48.204;11.612;2023-11-18T14:35:33;2.50;;;1.20;;
6280;SDS011;3173;48.204;11.612;2023-11-18T14:37:59;3.07;;;1.20;;
6280;SDS011;3173;48.204;11.612;2023-11-18T14:40:28;5.50;;;2.00;;
6280;SDS011;3173;48.204;11.612;2023-11-18T14:42:55;4.27;;;2.07;;
6280;SDS011;3173;48.204;11.612;2023-11-18T14:45:22;3.37;;;1.77;;
6280;SDS011;3173;48.204;11.612;2023-11-18T14:47:48;4.20;;;1.60;;
6280;SDS011;3173;48.204;11.612;2023-11-18T14:50:14;5.80;;;2.10;;
6280;SDS011;3173;48.204;11.612;2023-11-18T14:52:45;3.00;;;1.70;;
6280;SDS011;3173;48.204;11.612;2023-11-18T14:55:11;3.80;;;1.43;;
6280;SDS011;3173;48.204;11.612;2023-11-18T14:57:40;4.00;;;1.90;;
6280;SDS011;3173;48.204;11.612;2023-11-18T15:00:09;3.97;;;1.90;;
6280;SDS011;3173;48.204;11.612;2023-11-18T15:02:46;3.90;;;1.93;;
6280;SDS011;3173;48.204;11.612;2023-11-18T15:05:16;5.17;;;2.40;;
6280;SDS011;3173;48.204;11.612;2023-11-18T15:07:55;3.37;;;2.00;;
6280;SDS011;3173;48.204;11.612;2023-11-18T15:10:24;5.63;;;2.03;;
6280;SDS011;3173;48.204;11.612;2023-11-18T15:12:51;6.00;;;2.03;;
6280;SDS011;3173;48.204;11.612;2023-11-18T15:15:21;3.07;;;2.10;;
6280;SDS011;3173;48.204;11.612;2023-11-18T15:17:47;4.30;;;2.37;;
6280;SDS011;3173;48.204;11.612;2023-11-18T15:20:16;4.93;;;2.30;;
6280;SDS011;3173;48.204;11.612;2023-11-18T15:22:44;3.60;;;2.43;;
6280;SDS011;3173;48.204;11.612;2023-11-18T15:25:10;2.87;;;2.00;;
6280;SDS011;3173;48.204;11.612;2023-11-18T15:27:46;10.60;;;7.47;;
6280;SDS011;3173;48.204;11.612;2023-11-18T15:30:13;7.97;;;5.00;;
6280;SDS011;3173;48.204;11.612;2023-11-18T15:32:42;7.57;;;4.87;;
6280;SDS011;3173;48.204;11.612;2023-11-18T15:35:09;7.13;;;3.63;;
6280;SDS011;3173;48.204;11.612;2023-11-18T15:37:39;5.73;;;3.20;;
6280;SDS011;3173;48.204;11.612;2023-11-18T15:40:09;4.10;;;2.90;;